createdAt,value
2018-01-23T00:01:56.368Z,88.77
2018-01-23T00:04:23.835Z,88.45
2018-01-23T00:06:51.289Z,88.50
2018-01-23T00:09:18.774Z,88.09
2018-01-23T00:11:46.232Z,87.86
2018-01-23T00:14:13.691Z,87.85
2018-01-23T00:16:41.190Z,88.01
2018-01-23T00:19:08.653Z,88.30
2018-01-23T00:21:36.164Z,88.51
2018-01-23T00:24:03.670Z,88.61
2018-01-23T00:26:31.132Z,88.62
2018-01-23T00:28:58.614Z,88.00
2018-01-23T00:31:26.098Z,87.72
2018-01-23T00:33:53.554Z,86.92
2018-01-23T00:36:21.029Z,86.59
2018-01-23T00:38:48.509Z,86.54
2018-01-23T00:41:15.994Z,86.49
2018-01-23T00:43:43.468Z,86.49
2018-01-23T00:46:10.927Z,85.48
2018-01-23T00:48:38.908Z,85.46
2018-01-23T00:51:06.413Z,85.51
2018-01-23T00:53:33.870Z,85.40
2018-01-23T00:56:01.499Z,84.66
2018-01-23T00:58:29.015Z,85.10
2018-01-23T01:00:56.467Z,85.29
2018-01-23T01:03:23.915Z,85.10
2018-01-23T01:05:51.382Z,85.33
2018-01-23T01:08:18.858Z,84.50
2018-01-23T01:10:46.369Z,84.58
2018-01-23T01:13:13.835Z,83.86
2018-01-23T01:15:41.286Z,84.06
2018-01-23T01:18:08.742Z,84.43
2018-01-23T01:20:36.258Z,84.16
2018-01-23T01:23:03.724Z,83.19
2018-01-23T01:25:31.189Z,82.93
2018-01-23T01:27:58.660Z,83.13
2018-01-23T01:30:26.122Z,83.29
2018-01-23T01:32:53.574Z,83.57
2018-01-23T01:35:21.038Z,83.86
2018-01-23T01:37:48.498Z,83.46
2018-01-23T01:40:15.950Z,83.63
2018-01-23T01:42:43.406Z,83.53
2018-01-23T01:45:10.937Z,83.63
2018-01-23T01:47:38.402Z,83.24
2018-01-23T01:50:06.086Z,83.07
2018-01-23T01:52:33.555Z,83.58
2018-01-23T01:55:01.025Z,83.00
2018-01-23T01:57:28.468Z,82.71
2018-01-23T01:59:55.936Z,83.15
2018-01-23T02:02:23.394Z,83.54
2018-01-23T02:04:50.847Z,83.48
2018-01-23T02:07:18.381Z,83.74
2018-01-23T02:09:45.843Z,84.42
2018-01-23T02:12:13.303Z,84.87
2018-01-23T02:14:40.783Z,85.13
2018-01-23T02:17:08.312Z,85.59
2018-01-23T02:19:35.786Z,86.10
2018-01-23T02:22:03.238Z,86.58
2018-01-23T02:24:30.718Z,86.90
2018-01-23T02:26:58.181Z,86.72
2018-01-23T02:29:25.628Z,86.68
2018-01-23T02:31:53.121Z,87.13
2018-01-23T02:34:20.570Z,87.11
2018-01-23T02:36:48.034Z,87.19
2018-01-23T02:39:15.703Z,87.36
2018-01-23T02:41:43.167Z,87.79
2018-01-23T02:44:10.909Z,88.17
2018-01-23T02:46:38.384Z,88.52
2018-01-23T02:49:05.875Z,88.55
2018-01-23T02:51:33.336Z,89.07
2018-01-23T02:54:00.895Z,89.37
2018-01-23T02:56:28.350Z,89.68
2018-01-23T02:58:55.820Z,89.86
2018-01-23T03:01:23.282Z,90.08
2018-01-23T03:03:50.741Z,90.18
2018-01-23T03:06:18.227Z,90.17
2018-01-23T03:08:45.727Z,90.33
2018-01-23T03:11:13.298Z,90.55
2018-01-23T03:13:40.771Z,90.68
2018-01-23T03:16:08.381Z,90.61
2018-01-23T03:18:35.855Z,90.50
2018-01-23T03:21:03.366Z,90.24
2018-01-23T03:23:30.786Z,90.19
2018-01-23T03:25:58.250Z,90.19
2018-01-23T03:28:25.710Z,89.64
2018-01-23T03:30:53.184Z,90.04
2018-01-23T03:33:20.653Z,90.61
2018-01-23T03:35:48.102Z,90.88
2018-01-23T03:38:16.402Z,90.19
2018-01-23T03:40:43.862Z,89.25
2018-01-23T03:43:11.307Z,88.83
2018-01-23T03:45:38.784Z,87.92
2018-01-23T03:48:06.258Z,87.24
2018-01-23T03:50:33.722Z,87.60
2018-01-23T03:53:01.175Z,87.19
2018-01-23T03:55:28.635Z,87.27
2018-01-23T03:57:56.089Z,87.22
2018-01-23T04:00:23.533Z,87.00
2018-01-23T04:02:51.012Z,86.52
2018-01-23T04:05:18.462Z,86.67
2018-01-23T04:07:45.919Z,86.53
2018-01-23T04:10:13.422Z,86.65
2018-01-23T04:12:40.941Z,86.85
2018-01-23T04:15:08.388Z,86.79
2018-01-23T04:17:35.855Z,86.79
2018-01-23T04:20:03.307Z,86.26
2018-01-23T04:22:30.758Z,85.93
2018-01-23T04:24:58.272Z,86.31
2018-01-23T04:27:25.720Z,86.77
2018-01-23T04:29:53.171Z,86.34
2018-01-23T04:32:20.661Z,85.82
2018-01-23T04:34:48.154Z,85.49
2018-01-23T04:37:15.593Z,85.47
2018-01-23T04:39:43.077Z,85.85
2018-01-23T04:42:10.516Z,85.84
2018-01-23T04:44:38.006Z,85.71
2018-01-23T04:47:05.498Z,85.40
2018-01-23T04:49:32.958Z,85.10
2018-01-23T04:52:00.415Z,84.91
2018-01-23T04:54:27.892Z,83.70
2018-01-23T04:56:55.350Z,83.53
2018-01-23T04:59:22.806Z,84.02
2018-01-23T05:01:50.291Z,83.66
2018-01-23T05:04:18.643Z,83.80
2018-01-23T05:06:46.111Z,84.03
2018-01-23T05:09:13.599Z,84.15
2018-01-23T05:11:41.041Z,83.73
2018-01-23T05:14:08.576Z,83.53
2018-01-23T05:16:36.045Z,83.72
2018-01-23T05:19:03.503Z,84.28
2018-01-23T05:21:30.946Z,82.51
2018-01-23T05:23:58.454Z,82.30
2018-01-23T05:26:25.891Z,82.05
2018-01-23T05:28:53.347Z,82.06
2018-01-23T05:31:20.849Z,82.55
2018-01-23T05:33:48.315Z,82.36
2018-01-23T05:36:15.823Z,82.04
2018-01-23T05:38:43.307Z,82.49
2018-01-23T05:41:10.804Z,81.55
2018-01-23T05:43:38.252Z,81.56
2018-01-23T05:46:05.727Z,81.80
2018-01-23T05:48:33.198Z,81.14
2018-01-23T05:51:00.655Z,81.47
2018-01-23T05:53:28.135Z,81.57
2018-01-23T05:55:55.599Z,82.31
2018-01-23T05:58:23.460Z,81.93
2018-01-23T06:00:51.028Z,81.85
2018-01-23T06:03:18.542Z,81.78
2018-01-23T06:05:46.104Z,81.00
2018-01-23T06:08:13.571Z,81.19
2018-01-23T06:10:41.075Z,81.26
2018-01-23T06:13:08.564Z,81.37
2018-01-23T06:15:36.066Z,81.34
2018-01-23T06:18:03.527Z,81.29
2018-01-23T06:20:31.298Z,81.41
2018-01-23T06:22:58.776Z,81.00
2018-01-23T06:25:26.259Z,80.73
2018-01-23T06:27:53.743Z,80.68
2018-01-23T06:30:21.212Z,81.14
2018-01-23T06:32:48.681Z,80.71
2018-01-23T06:35:16.139Z,81.29
2018-01-23T06:37:43.602Z,81.49
2018-01-23T06:40:11.133Z,81.04
2018-01-23T06:42:38.593Z,81.54
2018-01-23T06:45:06.071Z,81.21
2018-01-23T06:47:33.543Z,81.29
2018-01-23T06:50:01.051Z,81.03
2018-01-23T06:52:28.518Z,81.21
2018-01-23T06:54:56.088Z,80.92
2018-01-23T06:57:23.572Z,81.08
2018-01-23T06:59:51.135Z,81.22
2018-01-23T07:02:18.614Z,81.60
2018-01-23T07:04:46.116Z,80.76
2018-01-23T07:07:13.578Z,80.08
2018-01-23T07:09:41.049Z,79.92
2018-01-23T07:12:08.583Z,80.55
2018-01-23T07:14:36.059Z,80.58
2018-01-23T07:17:03.510Z,79.97
2018-01-23T07:19:30.967Z,79.70
2018-01-23T07:21:58.526Z,79.76
2018-01-23T07:24:26.001Z,79.92
2018-01-23T07:26:53.474Z,79.92
2018-01-23T07:29:20.966Z,80.07
2018-01-23T07:31:48.547Z,80.78
2018-01-23T07:34:16.010Z,78.04
2018-01-23T07:36:43.476Z,76.90
2018-01-23T07:39:10.967Z,76.52
2018-01-23T07:41:38.435Z,76.15
2018-01-23T07:44:05.910Z,76.15
2018-01-23T07:46:33.388Z,76.08
2018-01-23T07:49:00.865Z,75.85
2018-01-23T07:51:28.341Z,75.87
2018-01-23T07:53:55.834Z,75.91
2018-01-23T07:56:23.356Z,76.46
2018-01-23T07:58:50.898Z,76.73
2018-01-23T08:01:18.464Z,76.93
2018-01-23T08:03:45.928Z,76.75
2018-01-23T08:06:13.439Z,75.75
2018-01-23T08:08:40.907Z,76.15
2018-01-23T08:11:08.364Z,76.76
2018-01-23T08:13:35.863Z,76.56
2018-01-23T08:16:03.354Z,76.43
2018-01-23T08:18:30.833Z,76.53
2018-01-23T08:20:58.334Z,76.46
2018-01-23T08:25:59.695Z,76.52
2018-01-23T08:28:27.146Z,75.88
2018-01-23T08:30:54.610Z,75.72
2018-01-23T08:33:22.070Z,75.55
2018-01-23T08:35:49.560Z,75.62
2018-01-23T08:38:17.151Z,76.68
2018-01-23T08:40:44.628Z,76.81
2018-01-23T08:43:12.088Z,77.41
2018-01-23T08:45:40.024Z,78.06
2018-01-23T08:48:07.490Z,78.69
2018-01-23T08:50:34.962Z,78.62
2018-01-23T08:53:02.423Z,79.33
2018-01-23T08:55:29.935Z,79.27
2018-01-23T08:57:57.509Z,79.85
2018-01-23T09:00:24.998Z,79.88
2018-01-23T09:02:52.706Z,79.99
2018-01-23T09:05:20.182Z,80.61
2018-01-23T09:07:47.642Z,81.13
2018-01-23T09:10:15.098Z,80.93
2018-01-23T09:12:42.612Z,81.76
2018-01-23T09:15:10.070Z,81.64
2018-01-23T09:17:37.529Z,81.59
2018-01-23T09:20:04.998Z,81.60
2018-01-23T09:22:32.468Z,81.72
2018-01-23T09:24:59.929Z,81.43
2018-01-23T09:27:27.396Z,81.25
2018-01-23T09:29:54.917Z,81.32
2018-01-23T09:32:22.483Z,80.97
2018-01-23T09:34:50.005Z,81.06
2018-01-23T09:37:17.492Z,80.19
2018-01-23T09:39:44.986Z,80.40
2018-01-23T09:42:12.475Z,79.33
2018-01-23T09:44:40.037Z,78.40
2018-01-23T09:47:07.540Z,78.53
2018-01-23T09:49:35.119Z,78.25
2018-01-23T09:52:02.633Z,78.15
2018-01-23T09:54:30.113Z,76.79
2018-01-23T09:56:57.583Z,77.33
2018-01-23T09:59:25.067Z,77.03
2018-01-23T10:01:52.659Z,76.56
2018-01-23T10:04:20.175Z,76.36
2018-01-23T10:06:47.650Z,76.57
2018-01-23T10:09:15.115Z,76.36
2018-01-23T10:11:42.599Z,76.15
2018-01-23T10:14:10.082Z,76.06
2018-01-23T10:16:37.566Z,76.73
2018-01-23T10:19:05.151Z,76.68
2018-01-23T10:21:32.670Z,76.64
2018-01-23T10:24:00.167Z,76.51
2018-01-23T10:26:27.666Z,76.85
2018-01-23T10:28:55.196Z,76.87
2018-01-23T10:31:22.939Z,77.51
2018-01-23T10:33:50.397Z,77.14
2018-01-23T10:36:17.909Z,77.05
2018-01-23T10:38:45.418Z,76.24
2018-01-23T10:41:12.983Z,75.97
2018-01-23T10:43:40.544Z,75.75
2018-01-23T10:46:08.015Z,75.71
2018-01-23T10:48:35.678Z,75.53
2018-01-23T10:51:03.166Z,74.69
2018-01-23T10:53:30.710Z,74.74
2018-01-23T10:55:58.228Z,74.81
2018-01-23T10:58:25.724Z,74.60
2018-01-23T11:00:58.763Z,73.63
2018-01-23T11:03:26.280Z,73.61
2018-01-23T11:05:53.758Z,73.21
2018-01-23T11:08:21.226Z,72.82
2018-01-23T11:10:48.707Z,72.47
2018-01-23T11:13:16.187Z,72.11
2018-01-23T11:15:43.667Z,72.56
2018-01-23T11:18:11.166Z,72.72
2018-01-23T11:20:38.650Z,72.58
2018-01-23T11:23:06.120Z,72.83
2018-01-23T11:25:33.599Z,72.13
2018-01-23T11:28:01.083Z,72.31
2018-01-23T11:30:28.597Z,72.44
2018-01-23T11:32:56.075Z,72.40
2018-01-23T11:35:23.533Z,72.59
2018-01-23T11:37:51.075Z,71.94
2018-01-23T11:40:18.566Z,71.40
2018-01-23T11:42:46.198Z,71.81
2018-01-23T11:45:13.670Z,71.31
2018-01-23T11:47:41.146Z,70.18
2018-01-23T11:50:08.632Z,69.92
2018-01-23T11:52:36.899Z,70.25
2018-01-23T11:55:04.654Z,70.78
2018-01-23T11:57:32.123Z,70.46
2018-01-23T11:59:59.595Z,70.89
2018-01-23T12:02:27.096Z,71.59
2018-01-23T12:04:54.565Z,71.27
2018-01-23T12:07:22.038Z,71.26
2018-01-23T12:09:49.568Z,72.29
2018-01-23T12:12:17.057Z,72.60
2018-01-23T12:14:44.538Z,73.04
2018-01-23T12:17:12.038Z,73.38
2018-01-23T12:19:39.503Z,73.43
2018-01-23T12:22:06.981Z,73.14
2018-01-23T12:24:34.458Z,73.38
2018-01-23T12:27:01.938Z,72.95
2018-01-23T12:29:29.459Z,73.14
2018-01-23T12:31:56.945Z,72.18
2018-01-23T12:34:24.432Z,72.63
2018-01-23T12:36:51.932Z,72.08
2018-01-23T12:39:19.460Z,72.38
2018-01-23T12:41:47.125Z,71.59
2018-01-23T12:44:14.623Z,72.29
2018-01-23T12:46:42.148Z,72.95
2018-01-23T12:49:09.782Z,73.36
2018-01-23T12:51:37.288Z,74.20
2018-01-23T12:54:05.407Z,73.27
2018-01-23T12:56:32.890Z,73.21
2018-01-23T12:59:00.496Z,73.41
2018-01-23T13:01:28.070Z,73.80
2018-01-23T13:03:55.596Z,74.37
2018-01-23T13:06:23.813Z,73.70
2018-01-23T13:08:51.315Z,74.18
2018-01-23T13:11:18.785Z,74.76
2018-01-23T13:13:46.300Z,74.58
2018-01-23T13:16:13.786Z,73.96
2018-01-23T13:18:41.289Z,74.18
2018-01-23T13:21:08.793Z,74.12
2018-01-23T13:23:36.279Z,74.65
2018-01-23T13:26:03.755Z,74.29
2018-01-23T13:28:31.920Z,74.52
2018-01-23T13:30:59.429Z,74.26
2018-01-23T13:33:26.898Z,74.43
2018-01-23T13:35:54.402Z,74.32
2018-01-23T13:38:21.906Z,73.88
2018-01-23T13:40:49.414Z,73.43
2018-01-23T13:43:16.923Z,73.77
2018-01-23T13:45:44.397Z,73.76
2018-01-23T13:48:11.866Z,73.57
2018-01-23T13:50:39.351Z,73.49
2018-01-23T13:53:06.832Z,73.70
2018-01-23T13:55:34.349Z,73.69
2018-01-23T13:58:01.869Z,73.77
2018-01-23T14:00:29.382Z,73.92
2018-01-23T14:02:56.899Z,73.65
2018-01-23T14:05:24.378Z,73.55
2018-01-23T14:07:51.916Z,73.31
2018-01-23T14:10:19.467Z,73.42
2018-01-23T14:12:46.938Z,74.03
2018-01-23T14:15:14.473Z,74.28
2018-01-23T14:17:41.985Z,73.97
2018-01-23T14:20:09.531Z,74.41
2018-01-23T14:22:37.034Z,74.31
2018-01-23T14:25:04.507Z,74.59
2018-01-23T14:27:32.022Z,74.13
2018-01-23T14:29:59.580Z,74.37
2018-01-23T14:32:27.076Z,75.02
2018-01-23T14:34:54.635Z,74.96
2018-01-23T14:37:22.124Z,74.80
2018-01-23T14:39:49.603Z,75.19
2018-01-23T14:42:17.099Z,75.59
2018-01-23T14:44:44.583Z,74.98
2018-01-23T14:47:12.214Z,75.62
2018-01-23T14:49:39.805Z,75.61
2018-01-23T14:52:07.440Z,75.89
2018-01-23T14:54:35.126Z,76.09
2018-01-23T14:57:02.662Z,76.24
2018-01-23T14:59:30.170Z,75.63
2018-01-23T15:01:57.687Z,75.62
2018-01-23T15:04:25.260Z,75.77
2018-01-23T15:06:52.782Z,76.01
2018-01-23T15:09:20.422Z,75.89
2018-01-23T15:11:47.882Z,75.97
2018-01-23T15:14:15.511Z,75.91
2018-01-23T15:16:43.021Z,76.46
2018-01-23T15:19:10.519Z,75.67
2018-01-23T15:21:38.020Z,76.06
2018-01-23T15:24:05.548Z,75.93
2018-01-23T15:26:33.164Z,76.45
2018-01-23T15:29:00.729Z,76.22
2018-01-23T15:31:28.206Z,76.86
2018-01-23T15:33:55.706Z,76.80
2018-01-23T15:36:23.248Z,77.12
2018-01-23T15:38:50.699Z,76.89
2018-01-23T15:41:18.213Z,77.27
2018-01-23T15:43:45.901Z,77.25
2018-01-23T15:46:13.462Z,76.97
2018-01-23T15:48:40.950Z,77.01
2018-01-23T15:51:09.015Z,77.53
2018-01-23T15:53:36.494Z,77.12
2018-01-23T15:56:04.014Z,77.33
2018-01-23T15:58:31.485Z,77.13
2018-01-23T16:00:58.998Z,76.92
2018-01-23T16:03:26.513Z,77.13
2018-01-23T16:05:53.979Z,77.39
2018-01-23T16:08:21.464Z,77.62
2018-01-23T16:10:48.967Z,77.81
2018-01-23T16:13:16.453Z,77.56
2018-01-23T16:15:43.933Z,77.45
2018-01-23T16:18:11.441Z,77.72
2018-01-23T16:20:39.362Z,77.73
2018-01-23T16:23:06.860Z,77.65
2018-01-23T16:25:34.363Z,77.02
2018-01-23T16:28:02.029Z,77.41
2018-01-23T16:30:29.542Z,77.21
2018-01-23T16:32:57.066Z,76.96
2018-01-23T16:35:25.015Z,76.74
2018-01-23T16:37:52.585Z,76.89
2018-01-23T16:40:20.071Z,77.05
2018-01-23T16:42:47.632Z,76.51
2018-01-23T16:45:15.170Z,76.07
2018-01-23T16:47:42.696Z,76.49
2018-01-23T16:50:10.190Z,76.17
2018-01-23T16:52:37.738Z,76.38
2018-01-23T16:55:05.359Z,76.01
2018-01-23T16:57:32.899Z,75.94
2018-01-23T17:00:00.403Z,75.88
2018-01-23T17:02:27.905Z,76.07
2018-01-23T17:04:56.079Z,76.31
2018-01-23T17:07:23.640Z,76.06
2018-01-23T17:09:51.128Z,76.41
2018-01-23T17:12:18.631Z,76.07
2018-01-23T17:14:46.153Z,76.27
2018-01-23T17:17:13.654Z,76.06
2018-01-23T17:19:41.139Z,75.91
2018-01-23T17:22:08.686Z,76.19
2018-01-23T17:24:36.211Z,76.11
2018-01-23T17:27:03.731Z,75.73
2018-01-23T17:29:31.228Z,75.89
2018-01-23T17:31:58.740Z,76.10
2018-01-23T17:34:26.279Z,76.71
2018-01-23T17:36:53.749Z,76.90
2018-01-23T17:39:21.278Z,77.05
2018-01-23T17:41:48.789Z,76.95
2018-01-23T17:44:16.288Z,77.28
2018-01-23T17:46:43.783Z,76.87
2018-01-23T17:49:11.351Z,77.17
2018-01-23T17:51:38.850Z,77.13
2018-01-23T17:54:06.411Z,77.50
2018-01-23T17:56:34.348Z,77.32
2018-01-23T17:59:01.847Z,77.14
2018-01-23T18:01:30.391Z,77.07
2018-01-23T18:03:57.896Z,77.06
2018-01-23T18:06:25.392Z,77.08
2018-01-23T18:08:52.920Z,77.37
2018-01-23T18:11:20.397Z,76.87
2018-01-23T18:13:48.150Z,77.19
2018-01-23T18:16:15.694Z,76.86
2018-01-23T18:18:43.215Z,76.59
2018-01-23T18:21:10.748Z,76.87
2018-01-23T18:23:38.253Z,76.89
2018-01-23T18:26:05.728Z,77.40
2018-01-23T18:28:33.251Z,77.36
2018-01-23T18:31:00.957Z,77.13
2018-01-23T18:33:28.465Z,76.81
2018-01-23T18:35:55.954Z,76.51
2018-01-23T18:38:23.481Z,76.38
2018-01-23T18:40:50.982Z,76.50
2018-01-23T18:43:18.551Z,76.32
2018-01-23T18:45:46.087Z,75.86
2018-01-23T18:48:13.601Z,76.00
2018-01-23T18:50:41.078Z,76.17
2018-01-23T18:53:08.662Z,76.02
2018-01-23T18:55:36.134Z,75.74
2018-01-23T18:58:03.618Z,75.76
2018-01-23T19:00:31.112Z,75.72
2018-01-23T19:02:59.268Z,75.74
2018-01-23T19:05:26.789Z,75.66
2018-01-23T19:07:54.266Z,75.87
2018-01-23T19:10:21.794Z,75.70
2018-01-23T19:12:49.284Z,75.93
2018-01-23T19:15:16.812Z,76.39
2018-01-23T19:17:44.366Z,76.19
2018-01-23T19:20:11.910Z,76.05
2018-01-23T19:22:39.617Z,76.22
2018-01-23T19:25:07.128Z,76.03
2018-01-23T19:27:34.664Z,76.19
2018-01-23T19:30:02.186Z,75.72
2018-01-23T19:32:29.779Z,75.58
2018-01-23T19:34:57.516Z,75.67
2018-01-23T19:37:25.068Z,75.83
2018-01-23T19:39:52.854Z,75.90
2018-01-23T19:42:20.741Z,75.66
2018-01-23T19:44:48.519Z,76.02
2018-01-23T19:47:16.384Z,76.27
2018-01-23T19:49:43.959Z,76.41
2018-01-23T19:52:11.457Z,76.78
2018-01-23T19:54:39.261Z,76.61
2018-01-23T19:57:06.885Z,76.86
2018-01-23T19:59:34.657Z,76.49
2018-01-23T20:02:02.499Z,76.66
2018-01-23T20:04:30.306Z,76.21
2018-01-23T20:06:58.186Z,76.48
2018-01-23T20:09:25.825Z,76.34
2018-01-23T20:11:53.349Z,76.17
2018-01-23T20:14:20.859Z,76.51
2018-01-23T20:16:48.716Z,76.39
2018-01-23T20:19:16.279Z,76.24
2018-01-23T20:21:43.790Z,76.78
2018-01-23T20:24:11.631Z,76.82
2018-01-23T20:26:39.516Z,76.83
2018-01-23T20:29:07.315Z,76.78
2018-01-23T20:31:34.827Z,77.11
2018-01-23T20:34:02.360Z,77.19
2018-01-23T20:36:29.908Z,77.30
2018-01-23T20:38:57.511Z,76.91
2018-01-23T20:41:25.031Z,77.01
2018-01-23T20:43:52.507Z,77.31
2018-01-23T20:46:20.068Z,76.84
2018-01-23T20:48:47.535Z,76.86
2018-01-23T20:51:15.039Z,77.00
2018-01-23T20:53:42.623Z,77.21
2018-01-23T20:56:10.108Z,77.02
2018-01-23T20:58:37.598Z,77.01
2018-01-23T21:01:05.122Z,77.40
2018-01-23T21:03:33.356Z,77.13
2018-01-23T21:06:00.849Z,76.99
2018-01-23T21:08:28.381Z,76.99
2018-01-23T21:10:55.845Z,76.72
2018-01-23T21:13:23.334Z,76.57
2018-01-23T21:15:50.870Z,76.87
2018-01-23T21:18:18.356Z,76.41
2018-01-23T21:20:45.972Z,76.79
2018-01-23T21:23:13.482Z,76.52
2018-01-23T21:25:40.978Z,76.42
2018-01-23T21:28:08.475Z,76.45
2018-01-23T21:30:35.988Z,76.83
2018-01-23T21:33:03.496Z,76.48
2018-01-23T21:35:31.654Z,76.60
2018-01-23T21:37:59.138Z,76.45
2018-01-23T21:40:26.698Z,76.78
2018-01-23T21:42:54.261Z,76.66
2018-01-23T21:45:21.762Z,76.47
2018-01-23T21:47:49.955Z,76.22
2018-01-23T21:50:17.499Z,76.40
2018-01-23T21:52:44.991Z,75.52
2018-01-23T21:55:12.487Z,76.08
2018-01-23T21:57:39.964Z,76.65
2018-01-23T22:00:07.453Z,77.13
2018-01-23T22:02:34.960Z,77.48
2018-01-23T22:05:02.460Z,77.77
2018-01-23T22:07:30.044Z,77.93
2018-01-23T22:10:04.228Z,77.85
2018-01-23T22:12:31.690Z,77.82
2018-01-23T22:14:59.170Z,77.97
2018-01-23T22:17:26.702Z,78.05
2018-01-23T22:19:54.546Z,78.02
2018-01-23T22:22:21.988Z,78.10
2018-01-23T22:24:49.540Z,78.00
2018-01-23T22:27:17.038Z,78.19
2018-01-23T22:29:44.550Z,78.23
2018-01-23T22:32:12.105Z,78.32
2018-01-23T22:34:39.627Z,78.33
2018-01-23T22:37:07.140Z,78.38
2018-01-23T22:39:34.666Z,78.36
2018-01-23T22:42:02.156Z,78.01
2018-01-23T22:44:30.997Z,77.73
2018-01-23T22:46:58.528Z,77.80
2018-01-23T22:49:26.087Z,78.08
2018-01-23T22:52:00.863Z,78.28
2018-01-23T22:54:28.540Z,78.24
2018-01-23T22:56:56.019Z,78.10
2018-01-23T22:59:24.314Z,78.09
2018-01-23T23:01:51.811Z,77.82
2018-01-23T23:04:19.281Z,77.96
2018-01-23T23:06:46.783Z,78.05
2018-01-23T23:09:14.538Z,78.28
2018-01-23T23:11:42.026Z,78.60
2018-01-23T23:14:09.636Z,78.85
2018-01-23T23:16:37.117Z,79.17
2018-01-23T23:19:04.592Z,79.40
2018-01-23T23:21:32.047Z,79.53
2018-01-23T23:23:59.505Z,79.68
2018-01-23T23:26:27.005Z,79.84
2018-01-23T23:28:54.487Z,79.95
2018-01-23T23:31:22.047Z,80.05
2018-01-23T23:33:49.552Z,80.22
2018-01-23T23:36:17.092Z,80.30
2018-01-23T23:38:44.593Z,80.20
2018-01-23T23:41:12.181Z,79.81
2018-01-23T23:43:39.660Z,79.70
2018-01-23T23:46:07.122Z,79.69
2018-01-23T23:48:34.591Z,79.76
2018-01-23T23:51:02.081Z,79.88
2018-01-23T23:53:29.618Z,80.02
2018-01-23T23:55:57.163Z,80.22
2018-01-23T23:58:24.627Z,80.22
